sensor_id;sensor_type;location;lat;lon;timestamp;P1;durP1;ratioP1;P2;durP2;ratioP2
21352;SDS011;10834;52.268;6.770;2022-08-01T00:01:02;2.78;;;2.58;;
21352;SDS011;10834;52.268;6.770;2022-08-01T00:03:48;2.55;;;2.33;;
21352;SDS011;10834;52.268;6.770;2022-08-01T00:06:34;2.50;;;2.30;;
21352;SDS011;10834;52.268;6.770;2022-08-01T00:09:20;2.38;;;2.20;;
21352;SDS011;10834;52.268;6.770;2022-08-01T00:12:06;2.50;;;2.30;;
21352;SDS011;10834;52.268;6.770;2022-08-01T00:14:52;2.05;;;1.95;;
21352;SDS011;10834;52.268;6.770;2022-08-01T00:17:38;2.35;;;2.25;;
21352;SDS011;10834;52.268;6.770;2022-08-01T00:20:25;1.88;;;1.77;;
21352;SDS011;10834;52.268;6.770;2022-08-01T00:23:11;2.00;;;1.90;;
21352;SDS011;10834;52.268;6.770;2022-08-01T00:25:57;2.22;;;2.13;;
21352;SDS011;10834;52.268;6.770;2022-08-01T00:28:43;2.63;;;2.22;;
21352;SDS011;10834;52.268;6.770;2022-08-01T00:31:29;2.55;;;2.22;;
21352;SDS011;10834;52.268;6.770;2022-08-01T00:34:15;1.98;;;1.88;;
21352;SDS011;10834;52.268;6.770;2022-08-01T00:37:01;2.38;;;2.17;;
21352;SDS011;10834;52.268;6.770;2022-08-01T00:39:47;2.08;;;1.98;;
21352;SDS011;10834;52.268;6.770;2022-08-01T00:42:33;2.17;;;2.08;;
21352;SDS011;10834;52.268;6.770;2022-08-01T00:45:19;2.70;;;2.50;;
21352;SDS011;10834;52.268;6.770;2022-08-01T00:48:05;2.10;;;2.00;;
21352;SDS011;10834;52.268;6.770;2022-08-01T00:50:51;2.05;;;1.95;;
21352;SDS011;10834;52.268;6.770;2022-08-01T00:53:38;2.10;;;2.00;;
21352;SDS011;10834;52.268;6.770;2022-08-01T00:56:25;2.33;;;2.13;;
21352;SDS011;10834;52.268;6.770;2022-08-01T00:59:12;2.40;;;2.20;;
21352;SDS011;10834;52.268;6.770;2022-08-01T01:02:02;2.15;;;2.05;;
21352;SDS011;10834;52.268;6.770;2022-08-01T01:04:48;2.70;;;2.50;;
21352;SDS011;10834;52.268;6.770;2022-08-01T01:10:54;2.08;;;1.98;;
21352;SDS011;10834;52.268;6.770;2022-08-01T01:13:49;1.88;;;1.77;;
21352;SDS011;10834;52.268;6.770;2022-08-01T01:16:41;2.47;;;2.28;;
21352;SDS011;10834;52.268;6.770;2022-08-01T01:19:30;2.08;;;1.90;;
21352;SDS011;10834;52.268;6.770;2022-08-01T01:22:25;2.17;;;1.92;;
21352;SDS011;10834;52.268;6.770;2022-08-01T01:25:32;2.00;;;1.90;;
21352;SDS011;10834;52.268;6.770;2022-08-01T01:28:30;2.47;;;2.10;;
21352;SDS011;10834;52.268;6.770;2022-08-01T01:31:26;2.15;;;2.05;;
21352;SDS011;10834;52.268;6.770;2022-08-01T01:34:15;2.28;;;2.08;;
21352;SDS011;10834;52.268;6.770;2022-08-01T01:37:04;1.73;;;1.63;;
21352;SDS011;10834;52.268;6.770;2022-08-01T01:39:53;2.15;;;2.05;;
21352;SDS011;10834;52.268;6.770;2022-08-01T01:42:41;2.22;;;2.10;;
21352;SDS011;10834;52.268;6.770;2022-08-01T01:45:28;2.08;;;1.88;;
21352;SDS011;10834;52.268;6.770;2022-08-01T01:48:17;2.03;;;1.92;;
21352;SDS011;10834;52.268;6.770;2022-08-01T01:51:05;2.08;;;1.98;;
21352;SDS011;10834;52.268;6.770;2022-08-01T01:53:52;3.63;;;2.35;;
21352;SDS011;10834;52.268;6.770;2022-08-01T01:56:40;1.83;;;1.73;;
21352;SDS011;10834;52.268;6.770;2022-08-01T01:59:37;1.90;;;1.80;;
21352;SDS011;10834;52.268;6.770;2022-08-01T02:02:24;2.17;;;2.08;;
21352;SDS011;10834;52.268;6.770;2022-08-01T02:05:11;1.60;;;1.50;;
21352;SDS011;10834;52.268;6.770;2022-08-01T02:07:58;1.65;;;1.55;;
21352;SDS011;10834;52.268;6.770;2022-08-01T02:10:46;1.83;;;1.73;;
21352;SDS011;10834;52.268;6.770;2022-08-01T02:13:59;2.00;;;1.90;;
21352;SDS011;10834;52.268;6.770;2022-08-01T02:16:50;1.90;;;1.80;;
21352;SDS011;10834;52.268;6.770;2022-08-01T02:19:36;1.60;;;1.50;;
21352;SDS011;10834;52.268;6.770;2022-08-01T02:22:25;2.30;;;2.10;;
21352;SDS011;10834;52.268;6.770;2022-08-01T02:25:25;1.75;;;1.65;;
21352;SDS011;10834;52.268;6.770;2022-08-01T02:28:25;2.00;;;1.90;;
21352;SDS011;10834;52.268;6.770;2022-08-01T02:31:21;1.75;;;1.65;;
21352;SDS011;10834;52.268;6.770;2022-08-01T02:34:09;2.17;;;2.08;;
21352;SDS011;10834;52.268;6.770;2022-08-01T02:36:58;1.98;;;1.80;;
21352;SDS011;10834;52.268;6.770;2022-08-01T02:39:46;1.80;;;1.48;;
21352;SDS011;10834;52.268;6.770;2022-08-01T02:42:36;1.85;;;1.75;;
21352;SDS011;10834;52.268;6.770;2022-08-01T02:45:24;1.90;;;1.80;;
21352;SDS011;10834;52.268;6.770;2022-08-01T02:48:12;2.00;;;1.90;;
21352;SDS011;10834;52.268;6.770;2022-08-01T02:51:00;1.83;;;1.73;;
21352;SDS011;10834;52.268;6.770;2022-08-01T02:53:47;1.98;;;1.88;;
21352;SDS011;10834;52.268;6.770;2022-08-01T02:56:35;1.77;;;1.67;;
21352;SDS011;10834;52.268;6.770;2022-08-01T02:59:23;1.65;;;1.55;;
21352;SDS011;10834;52.268;6.770;2022-08-01T03:02:11;1.80;;;1.70;;
21352;SDS011;10834;52.268;6.770;2022-08-01T03:04:59;1.67;;;1.58;;
21352;SDS011;10834;52.268;6.770;2022-08-01T03:07:47;1.60;;;1.50;;
21352;SDS011;10834;52.268;6.770;2022-08-01T03:10:35;1.80;;;1.70;;
21352;SDS011;10834;52.268;6.770;2022-08-01T03:13:23;1.92;;;1.58;;
21352;SDS011;10834;52.268;6.770;2022-08-01T03:16:12;1.60;;;1.50;;
21352;SDS011;10834;52.268;6.770;2022-08-01T03:19:00;1.88;;;1.77;;
21352;SDS011;10834;52.268;6.770;2022-08-01T03:21:47;1.75;;;1.50;;
21352;SDS011;10834;52.268;6.770;2022-08-01T03:24:35;1.60;;;1.50;;
21352;SDS011;10834;52.268;6.770;2022-08-01T03:27:24;1.17;;;1.08;;
21352;SDS011;10834;52.268;6.770;2022-08-01T03:30:11;1.70;;;1.60;;
21352;SDS011;10834;52.268;6.770;2022-08-01T03:32:58;1.40;;;1.30;;
21352;SDS011;10834;52.268;6.770;2022-08-01T03:35:49;1.70;;;1.60;;
21352;SDS011;10834;52.268;6.770;2022-08-01T03:38:39;1.38;;;1.27;;
21352;SDS011;10834;52.268;6.770;2022-08-01T03:41:29;1.63;;;1.52;;
21352;SDS011;10834;52.268;6.770;2022-08-01T03:44:22;1.65;;;1.55;;
21352;SDS011;10834;52.268;6.770;2022-08-01T03:47:12;1.33;;;1.23;;
21352;SDS011;10834;52.268;6.770;2022-08-01T03:50:02;1.63;;;1.52;;
21352;SDS011;10834;52.268;6.770;2022-08-01T03:52:50;1.48;;;1.38;;
21352;SDS011;10834;52.268;6.770;2022-08-01T03:55:39;1.30;;;1.20;;
21352;SDS011;10834;52.268;6.770;2022-08-01T03:58:30;1.40;;;1.30;;
21352;SDS011;10834;52.268;6.770;2022-08-01T04:01:17;1.90;;;1.80;;
21352;SDS011;10834;52.268;6.770;2022-08-01T04:04:03;1.15;;;1.10;;
21352;SDS011;10834;52.268;6.770;2022-08-01T04:06:51;1.40;;;1.30;;
21352;SDS011;10834;52.268;6.770;2022-08-01T04:09:39;1.60;;;1.50;;
21352;SDS011;10834;52.268;6.770;2022-08-01T04:12:25;1.50;;;1.40;;
21352;SDS011;10834;52.268;6.770;2022-08-01T04:15:11;1.48;;;1.38;;
21352;SDS011;10834;52.268;6.770;2022-08-01T04:17:57;1.50;;;1.40;;
21352;SDS011;10834;52.268;6.770;2022-08-01T04:20:43;1.42;;;1.33;;
21352;SDS011;10834;52.268;6.770;2022-08-01T04:23:31;1.60;;;1.50;;
21352;SDS011;10834;52.268;6.770;2022-08-01T04:26:20;1.60;;;1.50;;
21352;SDS011;10834;52.268;6.770;2022-08-01T04:29:07;1.20;;;1.10;;
21352;SDS011;10834;52.268;6.770;2022-08-01T04:31:54;1.17;;;1.10;;
21352;SDS011;10834;52.268;6.770;2022-08-01T04:34:42;1.50;;;1.40;;
21352;SDS011;10834;52.268;6.770;2022-08-01T04:37:31;1.52;;;1.42;;
21352;SDS011;10834;52.268;6.770;2022-08-01T04:40:22;1.90;;;1.80;;
21352;SDS011;10834;52.268;6.770;2022-08-01T04:43:08;1.30;;;1.20;;
21352;SDS011;10834;52.268;6.770;2022-08-01T04:45:54;1.30;;;1.23;;
21352;SDS011;10834;52.268;6.770;2022-08-01T04:48:43;2.58;;;1.63;;
21352;SDS011;10834;52.268;6.770;2022-08-01T04:51:30;1.30;;;1.20;;
21352;SDS011;10834;52.268;6.770;2022-08-01T04:54:16;1.63;;;1.52;;
21352;SDS011;10834;52.268;6.770;2022-08-01T04:57:05;1.13;;;1.10;;
21352;SDS011;10834;52.268;6.770;2022-08-01T04:59:52;1.40;;;0.98;;
21352;SDS011;10834;52.268;6.770;2022-08-01T05:02:42;1.25;;;1.25;;
21352;SDS011;10834;52.268;6.770;2022-08-01T05:05:28;1.40;;;1.30;;
21352;SDS011;10834;52.268;6.770;2022-08-01T05:08:15;1.10;;;1.00;;
21352;SDS011;10834;52.268;6.770;2022-08-01T05:11:02;1.50;;;1.40;;
21352;SDS011;10834;52.268;6.770;2022-08-01T05:13:48;1.42;;;1.20;;
21352;SDS011;10834;52.268;6.770;2022-08-01T05:16:34;1.20;;;1.10;;
21352;SDS011;10834;52.268;6.770;2022-08-01T05:19:20;1.40;;;1.30;;
21352;SDS011;10834;52.268;6.770;2022-08-01T05:22:08;1.45;;;1.35;;
21352;SDS011;10834;52.268;6.770;2022-08-01T05:24:55;1.17;;;1.08;;
21352;SDS011;10834;52.268;6.770;2022-08-01T05:27:41;1.30;;;1.20;;
21352;SDS011;10834;52.268;6.770;2022-08-01T05:30:27;1.20;;;1.20;;
21352;SDS011;10834;52.268;6.770;2022-08-01T05:33:13;1.40;;;1.30;;
21352;SDS011;10834;52.268;6.770;2022-08-01T05:35:59;1.25;;;1.17;;
21352;SDS011;10834;52.268;6.770;2022-08-01T05:38:45;1.13;;;1.13;;
21352;SDS011;10834;52.268;6.770;2022-08-01T05:41:31;1.25;;;1.25;;
21352;SDS011;10834;52.268;6.770;2022-08-01T05:44:17;1.30;;;1.20;;
21352;SDS011;10834;52.268;6.770;2022-08-01T05:47:03;1.38;;;1.27;;
21352;SDS011;10834;52.268;6.770;2022-08-01T05:49:49;1.25;;;1.15;;
21352;SDS011;10834;52.268;6.770;2022-08-01T05:52:35;1.15;;;1.15;;
21352;SDS011;10834;52.268;6.770;2022-08-01T05:55:22;0.85;;;0.85;;
21352;SDS011;10834;52.268;6.770;2022-08-01T05:58:08;1.20;;;1.10;;
21352;SDS011;10834;52.268;6.770;2022-08-01T06:00:54;1.30;;;1.20;;
21352;SDS011;10834;52.268;6.770;2022-08-01T06:03:40;1.25;;;1.05;;
21352;SDS011;10834;52.268;6.770;2022-08-01T06:06:26;1.45;;;1.35;;
21352;SDS011;10834;52.268;6.770;2022-08-01T06:09:12;1.00;;;1.00;;
21352;SDS011;10834;52.268;6.770;2022-08-01T06:11:58;1.10;;;1.10;;
21352;SDS011;10834;52.268;6.770;2022-08-01T06:14:44;1.10;;;1.02;;
21352;SDS011;10834;52.268;6.770;2022-08-01T06:17:30;1.20;;;1.10;;
21352;SDS011;10834;52.268;6.770;2022-08-01T06:20:16;1.17;;;1.05;;
21352;SDS011;10834;52.268;6.770;2022-08-01T06:23:03;0.80;;;0.80;;
21352;SDS011;10834;52.268;6.770;2022-08-01T06:25:52;1.27;;;1.27;;
21352;SDS011;10834;52.268;6.770;2022-08-01T06:28:43;1.17;;;1.10;;
21352;SDS011;10834;52.268;6.770;2022-08-01T06:31:29;1.08;;;1.08;;
21352;SDS011;10834;52.268;6.770;2022-08-01T06:34:16;1.65;;;1.20;;
21352;SDS011;10834;52.268;6.770;2022-08-01T06:37:02;1.58;;;0.95;;
21352;SDS011;10834;52.268;6.770;2022-08-01T06:39:48;1.13;;;1.02;;
21352;SDS011;10834;52.268;6.770;2022-08-01T06:42:35;0.65;;;0.65;;
21352;SDS011;10834;52.268;6.770;2022-08-01T06:45:21;1.30;;;1.23;;
21352;SDS011;10834;52.268;6.770;2022-08-01T06:48:08;1.35;;;1.10;;
21352;SDS011;10834;52.268;6.770;2022-08-01T06:50:54;0.98;;;0.98;;
21352;SDS011;10834;52.268;6.770;2022-08-01T06:53:53;1.33;;;1.00;;
21352;SDS011;10834;52.268;6.770;2022-08-01T06:56:39;1.17;;;1.17;;
21352;SDS011;10834;52.268;6.770;2022-08-01T06:59:25;1.30;;;1.20;;
21352;SDS011;10834;52.268;6.770;2022-08-01T07:02:11;0.95;;;0.95;;
21352;SDS011;10834;52.268;6.770;2022-08-01T07:04:57;0.90;;;0.90;;
21352;SDS011;10834;52.268;6.770;2022-08-01T07:07:45;0.95;;;0.95;;
21352;SDS011;10834;52.268;6.770;2022-08-01T07:10:31;1.10;;;1.10;;
21352;SDS011;10834;52.268;6.770;2022-08-01T07:13:17;1.05;;;0.98;;
21352;SDS011;10834;52.268;6.770;2022-08-01T07:16:06;1.00;;;1.00;;
21352;SDS011;10834;52.268;6.770;2022-08-01T07:18:52;0.70;;;0.70;;
21352;SDS011;10834;52.268;6.770;2022-08-01T07:21:38;1.23;;;1.13;;
21352;SDS011;10834;52.268;6.770;2022-08-01T07:24:25;1.30;;;1.20;;
21352;SDS011;10834;52.268;6.770;2022-08-01T07:27:11;0.98;;;0.98;;
21352;SDS011;10834;52.268;6.770;2022-08-01T07:29:57;1.20;;;1.10;;
21352;SDS011;10834;52.268;6.770;2022-08-01T07:32:43;0.90;;;0.90;;
21352;SDS011;10834;52.268;6.770;2022-08-01T07:35:29;0.90;;;0.90;;
21352;SDS011;10834;52.268;6.770;2022-08-01T07:38:15;1.92;;;0.90;;
21352;SDS011;10834;52.268;6.770;2022-08-01T07:41:02;1.67;;;1.20;;
21352;SDS011;10834;52.268;6.770;2022-08-01T07:43:48;0.82;;;0.80;;
21352;SDS011;10834;52.268;6.770;2022-08-01T07:46:34;1.67;;;1.10;;
21352;SDS011;10834;52.268;6.770;2022-08-01T07:49:20;1.10;;;1.00;;
21352;SDS011;10834;52.268;6.770;2022-08-01T07:52:07;1.05;;;1.00;;
21352;SDS011;10834;52.268;6.770;2022-08-01T07:54:53;1.20;;;1.10;;
21352;SDS011;10834;52.268;6.770;2022-08-01T07:57:41;1.08;;;0.98;;
21352;SDS011;10834;52.268;6.770;2022-08-01T08:00:27;1.23;;;1.13;;
21352;SDS011;10834;52.268;6.770;2022-08-01T08:03:13;1.83;;;1.20;;
21352;SDS011;10834;52.268;6.770;2022-08-01T08:05:59;1.42;;;1.30;;
21352;SDS011;10834;52.268;6.770;2022-08-01T08:08:45;2.08;;;1.27;;
21352;SDS011;10834;52.268;6.770;2022-08-01T08:11:32;1.25;;;1.15;;
21352;SDS011;10834;52.268;6.770;2022-08-01T08:14:18;3.72;;;1.60;;
21352;SDS011;10834;52.268;6.770;2022-08-01T08:17:04;1.80;;;1.30;;
21352;SDS011;10834;52.268;6.770;2022-08-01T08:19:51;1.77;;;1.23;;
21352;SDS011;10834;52.268;6.770;2022-08-01T08:22:37;2.58;;;1.63;;
21352;SDS011;10834;52.268;6.770;2022-08-01T08:25:24;3.22;;;1.38;;
21352;SDS011;10834;52.268;6.770;2022-08-01T08:28:10;2.88;;;1.25;;
21352;SDS011;10834;52.268;6.770;2022-08-01T08:30:56;2.22;;;1.27;;
21352;SDS011;10834;52.268;6.770;2022-08-01T08:33:42;2.40;;;1.58;;
21352;SDS011;10834;52.268;6.770;2022-08-01T08:36:28;2.85;;;1.40;;
21352;SDS011;10834;52.268;6.770;2022-08-01T08:39:15;2.97;;;1.52;;
21352;SDS011;10834;52.268;6.770;2022-08-01T08:42:04;4.47;;;1.48;;
21352;SDS011;10834;52.268;6.770;2022-08-01T08:44:51;3.75;;;2.45;;
21352;SDS011;10834;52.268;6.770;2022-08-01T08:47:39;4.35;;;1.35;;
21352;SDS011;10834;52.268;6.770;2022-08-01T08:50:28;3.70;;;1.33;;
21352;SDS011;10834;52.268;6.770;2022-08-01T08:53:14;1.73;;;1.63;;
21352;SDS011;10834;52.268;6.770;2022-08-01T08:56:01;2.47;;;1.70;;
21352;SDS011;10834;52.268;6.770;2022-08-01T08:58:48;3.58;;;1.60;;
21352;SDS011;10834;52.268;6.770;2022-08-01T09:01:36;2.80;;;1.60;;
21352;SDS011;10834;52.268;6.770;2022-08-01T09:04:23;4.95;;;1.75;;
21352;SDS011;10834;52.268;6.770;2022-08-01T09:07:10;2.33;;;1.60;;
21352;SDS011;10834;52.268;6.770;2022-08-01T09:09:57;4.65;;;1.80;;
21352;SDS011;10834;52.268;6.770;2022-08-01T09:15:54;5.03;;;1.80;;
21352;SDS011;10834;52.268;6.770;2022-08-01T09:18:44;3.50;;;1.60;;
21352;SDS011;10834;52.268;6.770;2022-08-01T09:21:30;2.38;;;1.50;;
21352;SDS011;10834;52.268;6.770;2022-08-01T09:24:16;4.03;;;2.17;;
21352;SDS011;10834;52.268;6.770;2022-08-01T09:27:23;4.15;;;1.77;;
21352;SDS011;10834;52.268;6.770;2022-08-01T09:30:12;6.22;;;1.75;;
21352;SDS011;10834;52.268;6.770;2022-08-01T09:33:00;5.30;;;2.03;;
21352;SDS011;10834;52.268;6.770;2022-08-01T09:35:57;1.83;;;1.50;;
21352;SDS011;10834;52.268;6.770;2022-08-01T09:38:43;2.97;;;1.90;;
21352;SDS011;10834;52.268;6.770;2022-08-01T09:41:30;4.82;;;2.13;;
21352;SDS011;10834;52.268;6.770;2022-08-01T09:44:17;4.80;;;2.08;;
21352;SDS011;10834;52.268;6.770;2022-08-01T09:47:04;4.05;;;2.15;;
21352;SDS011;10834;52.268;6.770;2022-08-01T09:49:54;3.38;;;1.75;;
21352;SDS011;10834;52.268;6.770;2022-08-01T09:52:41;5.53;;;2.17;;
21352;SDS011;10834;52.268;6.770;2022-08-01T09:55:39;5.80;;;2.25;;
21352;SDS011;10834;52.268;6.770;2022-08-01T09:58:26;3.88;;;1.98;;
21352;SDS011;10834;52.268;6.770;2022-08-01T10:01:12;3.47;;;1.50;;
21352;SDS011;10834;52.268;6.770;2022-08-01T10:04:05;5.80;;;2.60;;
21352;SDS011;10834;52.268;6.770;2022-08-01T10:07:06;7.65;;;2.60;;
21352;SDS011;10834;52.268;6.770;2022-08-01T10:09:52;5.57;;;1.85;;
21352;SDS011;10834;52.268;6.770;2022-08-01T10:12:38;4.80;;;1.80;;
21352;SDS011;10834;52.268;6.770;2022-08-01T10:15:26;5.72;;;1.85;;
21352;SDS011;10834;52.268;6.770;2022-08-01T10:18:13;3.05;;;1.80;;
21352;SDS011;10834;52.268;6.770;2022-08-01T10:21:03;5.25;;;1.80;;
21352;SDS011;10834;52.268;6.770;2022-08-01T10:23:49;5.38;;;1.77;;
21352;SDS011;10834;52.268;6.770;2022-08-01T10:26:35;2.92;;;1.90;;
21352;SDS011;10834;52.268;6.770;2022-08-01T10:29:22;3.00;;;1.70;;
21352;SDS011;10834;52.268;6.770;2022-08-01T10:32:10;8.02;;;2.45;;
21352;SDS011;10834;52.268;6.770;2022-08-01T10:34:56;9.55;;;2.35;;
21352;SDS011;10834;52.268;6.770;2022-08-01T10:37:44;6.63;;;2.17;;
21352;SDS011;10834;52.268;6.770;2022-08-01T10:40:31;3.70;;;1.85;;
21352;SDS011;10834;52.268;6.770;2022-08-01T10:43:17;3.65;;;1.95;;
21352;SDS011;10834;52.268;6.770;2022-08-01T10:46:04;6.57;;;1.90;;
21352;SDS011;10834;52.268;6.770;2022-08-01T10:48:58;7.80;;;2.08;;
21352;SDS011;10834;52.268;6.770;2022-08-01T10:51:49;4.05;;;1.65;;
21352;SDS011;10834;52.268;6.770;2022-08-01T10:54:39;8.32;;;1.83;;
21352;SDS011;10834;52.268;6.770;2022-08-01T10:57:35;5.97;;;3.03;;
21352;SDS011;10834;52.268;6.770;2022-08-01T11:00:30;4.97;;;1.67;;
21352;SDS011;10834;52.268;6.770;2022-08-01T11:03:16;7.95;;;1.75;;
21352;SDS011;10834;52.268;6.770;2022-08-01T11:06:24;8.00;;;2.22;;
21352;SDS011;10834;52.268;6.770;2022-08-01T11:09:29;6.20;;;2.33;;
21352;SDS011;10834;52.268;6.770;2022-08-01T11:12:17;5.65;;;2.40;;
21352;SDS011;10834;52.268;6.770;2022-08-01T11:17:51;4.10;;;2.40;;
21352;SDS011;10834;52.268;6.770;2022-08-01T11:20:38;7.68;;;1.80;;
21352;SDS011;10834;52.268;6.770;2022-08-01T11:23:49;3.67;;;1.58;;
21352;SDS011;10834;52.268;6.770;2022-08-01T11:26:39;8.40;;;2.17;;
21352;SDS011;10834;52.268;6.770;2022-08-01T11:32:56;4.20;;;1.85;;
21352;SDS011;10834;52.268;6.770;2022-08-01T11:41:50;4.50;;;1.65;;
21352;SDS011;10834;52.268;6.770;2022-08-01T11:44:50;3.08;;;1.40;;
21352;SDS011;10834;52.268;6.770;2022-08-01T11:47:46;4.20;;;1.60;;
21352;SDS011;10834;52.268;6.770;2022-08-01T11:50:34;4.07;;;1.73;;
21352;SDS011;10834;52.268;6.770;2022-08-01T11:53:21;5.30;;;2.03;;
21352;SDS011;10834;52.268;6.770;2022-08-01T11:56:08;4.25;;;2.00;;
21352;SDS011;10834;52.268;6.770;2022-08-01T11:58:58;2.80;;;1.70;;
21352;SDS011;10834;52.268;6.770;2022-08-01T12:01:44;2.63;;;1.45;;
21352;SDS011;10834;52.268;6.770;2022-08-01T12:07:41;5.60;;;2.00;;
21352;SDS011;10834;52.268;6.770;2022-08-01T12:10:29;4.63;;;1.80;;
21352;SDS011;10834;52.268;6.770;2022-08-01T12:13:18;5.22;;;1.75;;
21352;SDS011;10834;52.268;6.770;2022-08-01T12:16:07;6.72;;;2.05;;
21352;SDS011;10834;52.268;6.770;2022-08-01T12:18:55;7.72;;;2.10;;
21352;SDS011;10834;52.268;6.770;2022-08-01T12:21:41;3.75;;;1.75;;
21352;SDS011;10834;52.268;6.770;2022-08-01T12:24:27;5.25;;;2.20;;
21352;SDS011;10834;52.268;6.770;2022-08-01T12:27:23;5.15;;;1.88;;
21352;SDS011;10834;52.268;6.770;2022-08-01T12:30:11;7.07;;;2.05;;
21352;SDS011;10834;52.268;6.770;2022-08-01T12:33:08;2.60;;;1.65;;
21352;SDS011;10834;52.268;6.770;2022-08-01T12:35:55;7.78;;;1.80;;
21352;SDS011;10834;52.268;6.770;2022-08-01T12:38:43;3.75;;;1.80;;
21352;SDS011;10834;52.268;6.770;2022-08-01T12:41:29;3.58;;;1.80;;
21352;SDS011;10834;52.268;6.770;2022-08-01T12:44:15;6.75;;;1.75;;
21352;SDS011;10834;52.268;6.770;2022-08-01T12:47:02;2.97;;;1.80;;
21352;SDS011;10834;52.268;6.770;2022-08-01T12:49:50;3.03;;;1.75;;
21352;SDS011;10834;52.268;6.770;2022-08-01T12:52:37;5.47;;;2.80;;
21352;SDS011;10834;52.268;6.770;2022-08-01T12:55:24;3.78;;;1.52;;
21352;SDS011;10834;52.268;6.770;2022-08-01T12:58:12;4.82;;;1.73;;
21352;SDS011;10834;52.268;6.770;2022-08-01T13:01:07;5.13;;;2.65;;
21352;SDS011;10834;52.268;6.770;2022-08-01T13:03:59;2.10;;;1.60;;
21352;SDS011;10834;52.268;6.770;2022-08-01T13:06:46;2.83;;;1.85;;
21352;SDS011;10834;52.268;6.770;2022-08-01T13:09:33;3.92;;;1.90;;
21352;SDS011;10834;52.268;6.770;2022-08-01T13:12:19;6.05;;;2.25;;
21352;SDS011;10834;52.268;6.770;2022-08-01T13:15:18;2.83;;;1.42;;
21352;SDS011;10834;52.268;6.770;2022-08-01T13:18:32;3.88;;;1.88;;
21352;SDS011;10834;52.268;6.770;2022-08-01T13:21:19;1.92;;;1.30;;
21352;SDS011;10834;52.268;6.770;2022-08-01T13:24:07;4.53;;;1.67;;
21352;SDS011;10834;52.268;6.770;2022-08-01T13:26:57;3.05;;;1.80;;
21352;SDS011;10834;52.268;6.770;2022-08-01T13:29:45;2.13;;;1.50;;
21352;SDS011;10834;52.268;6.770;2022-08-01T13:32:32;3.25;;;1.48;;
21352;SDS011;10834;52.268;6.770;2022-08-01T13:35:19;1.90;;;1.02;;
21352;SDS011;10834;52.268;6.770;2022-08-01T13:38:06;1.83;;;1.65;;
21352;SDS011;10834;52.268;6.770;2022-08-01T13:40:57;4.05;;;1.48;;
21352;SDS011;10834;52.268;6.770;2022-08-01T13:43:43;2.50;;;1.35;;
21352;SDS011;10834;52.268;6.770;2022-08-01T13:46:30;6.03;;;1.90;;
21352;SDS011;10834;52.268;6.770;2022-08-01T13:49:17;5.43;;;2.08;;
21352;SDS011;10834;52.268;6.770;2022-08-01T13:52:03;3.50;;;1.50;;
21352;SDS011;10834;52.268;6.770;2022-08-01T13:54:51;3.60;;;1.70;;
21352;SDS011;10834;52.268;6.770;2022-08-01T13:57:37;3.10;;;1.60;;
21352;SDS011;10834;52.268;6.770;2022-08-01T14:00:23;3.60;;;1.75;;
21352;SDS011;10834;52.268;6.770;2022-08-01T14:03:09;2.97;;;1.70;;
21352;SDS011;10834;52.268;6.770;2022-08-01T14:05:56;1.80;;;1.38;;
21352;SDS011;10834;52.268;6.770;2022-08-01T14:08:42;2.22;;;1.60;;
21352;SDS011;10834;52.268;6.770;2022-08-01T14:11:29;3.13;;;1.45;;
21352;SDS011;10834;52.268;6.770;2022-08-01T14:14:15;3.78;;;1.42;;
21352;SDS011;10834;52.268;6.770;2022-08-01T14:17:02;2.30;;;1.55;;
21352;SDS011;10834;52.268;6.770;2022-08-01T14:19:48;2.47;;;1.75;;
21352;SDS011;10834;52.268;6.770;2022-08-01T14:22:34;4.13;;;1.80;;
21352;SDS011;10834;52.268;6.770;2022-08-01T14:25:20;6.97;;;1.70;;
21352;SDS011;10834;52.268;6.770;2022-08-01T14:28:07;2.05;;;1.75;;
21352;SDS011;10834;52.268;6.770;2022-08-01T14:30:53;2.45;;;1.38;;
21352;SDS011;10834;52.268;6.770;2022-08-01T14:33:40;2.65;;;1.60;;
21352;SDS011;10834;52.268;6.770;2022-08-01T14:36:26;2.90;;;1.85;;
21352;SDS011;10834;52.268;6.770;2022-08-01T14:39:13;4.63;;;1.40;;
21352;SDS011;10834;52.268;6.770;2022-08-01T14:41:59;2.97;;;1.60;;
21352;SDS011;10834;52.268;6.770;2022-08-01T14:44:45;5.20;;;1.95;;
21352;SDS011;10834;52.268;6.770;2022-08-01T14:47:31;2.72;;;1.50;;
21352;SDS011;10834;52.268;6.770;2022-08-01T14:50:17;1.85;;;1.52;;
21352;SDS011;10834;52.268;6.770;2022-08-01T14:53:03;3.08;;;1.50;;
21352;SDS011;10834;52.268;6.770;2022-08-01T14:55:49;4.43;;;1.92;;
21352;SDS011;10834;52.268;6.770;2022-08-01T14:58:35;2.92;;;1.75;;
21352;SDS011;10834;52.268;6.770;2022-08-01T15:01:21;3.42;;;1.77;;
21352;SDS011;10834;52.268;6.770;2022-08-01T15:04:07;1.40;;;1.27;;
21352;SDS011;10834;52.268;6.770;2022-08-01T15:06:53;3.72;;;1.75;;
21352;SDS011;10834;52.268;6.770;2022-08-01T15:09:39;5.60;;;1.73;;
21352;SDS011;10834;52.268;6.770;2022-08-01T15:12:25;3.60;;;1.58;;
21352;SDS011;10834;52.268;6.770;2022-08-01T15:15:11;3.42;;;1.60;;
21352;SDS011;10834;52.268;6.770;2022-08-01T15:17:57;3.25;;;1.65;;
21352;SDS011;10834;52.268;6.770;2022-08-01T15:20:44;2.80;;;1.20;;
21352;SDS011;10834;52.268;6.770;2022-08-01T15:23:30;4.85;;;1.50;;
21352;SDS011;10834;52.268;6.770;2022-08-01T15:26:16;3.65;;;1.45;;
21352;SDS011;10834;52.268;6.770;2022-08-01T15:29:02;5.78;;;1.73;;
21352;SDS011;10834;52.268;6.770;2022-08-01T15:31:48;2.28;;;1.52;;
21352;SDS011;10834;52.268;6.770;2022-08-01T15:34:35;3.33;;;1.40;;
21352;SDS011;10834;52.268;6.770;2022-08-01T15:37:22;2.78;;;1.65;;
21352;SDS011;10834;52.268;6.770;2022-08-01T15:40:08;3.17;;;1.50;;
21352;SDS011;10834;52.268;6.770;2022-08-01T15:42:55;2.92;;;1.67;;
21352;SDS011;10834;52.268;6.770;2022-08-01T15:45:41;2.47;;;1.38;;
21352;SDS011;10834;52.268;6.770;2022-08-01T15:48:27;4.20;;;1.70;;
21352;SDS011;10834;52.268;6.770;2022-08-01T15:51:13;3.17;;;1.75;;
21352;SDS011;10834;52.268;6.770;2022-08-01T15:53:59;2.08;;;1.38;;
21352;SDS011;10834;52.268;6.770;2022-08-01T15:56:51;3.28;;;1.50;;
21352;SDS011;10834;52.268;6.770;2022-08-01T15:59:37;3.60;;;1.83;;
21352;SDS011;10834;52.268;6.770;2022-08-01T16:02:23;3.40;;;1.42;;
21352;SDS011;10834;52.268;6.770;2022-08-01T16:05:09;5.03;;;1.55;;
21352;SDS011;10834;52.268;6.770;2022-08-01T16:07:55;2.65;;;1.70;;
21352;SDS011;10834;52.268;6.770;2022-08-01T16:10:41;2.80;;;1.50;;
21352;SDS011;10834;52.268;6.770;2022-08-01T16:13:27;2.80;;;1.42;;
21352;SDS011;10834;52.268;6.770;2022-08-01T16:16:13;3.22;;;1.63;;
21352;SDS011;10834;52.268;6.770;2022-08-01T16:19:01;4.47;;;1.50;;
21352;SDS011;10834;52.268;6.770;2022-08-01T16:21:49;2.83;;;1.40;;
21352;SDS011;10834;52.268;6.770;2022-08-01T16:24:36;2.25;;;1.42;;
21352;SDS011;10834;52.268;6.770;2022-08-01T16:27:22;2.67;;;2.08;;
21352;SDS011;10834;52.268;6.770;2022-08-01T16:30:08;4.93;;;1.33;;
21352;SDS011;10834;52.268;6.770;2022-08-01T16:32:55;2.92;;;1.73;;
21352;SDS011;10834;52.268;6.770;2022-08-01T16:35:42;3.50;;;1.40;;
21352;SDS011;10834;52.268;6.770;2022-08-01T16:38:29;1.92;;;1.00;;
21352;SDS011;10834;52.268;6.770;2022-08-01T16:41:15;3.35;;;1.90;;
21352;SDS011;10834;52.268;6.770;2022-08-01T16:44:01;2.60;;;1.20;;
21352;SDS011;10834;52.268;6.770;2022-08-01T16:46:47;2.33;;;1.27;;
21352;SDS011;10834;52.268;6.770;2022-08-01T16:49:33;1.90;;;1.42;;
21352;SDS011;10834;52.268;6.770;2022-08-01T16:52:19;4.07;;;1.35;;
21352;SDS011;10834;52.268;6.770;2022-08-01T16:55:05;2.85;;;1.02;;
21352;SDS011;10834;52.268;6.770;2022-08-01T16:57:51;1.60;;;1.13;;
21352;SDS011;10834;52.268;6.770;2022-08-01T17:00:38;3.90;;;1.25;;
21352;SDS011;10834;52.268;6.770;2022-08-01T17:03:27;1.88;;;1.10;;
21352;SDS011;10834;52.268;6.770;2022-08-01T17:06:13;2.28;;;1.23;;
21352;SDS011;10834;52.268;6.770;2022-08-01T17:08:59;1.77;;;1.00;;
21352;SDS011;10834;52.268;6.770;2022-08-01T17:11:45;2.63;;;1.20;;
21352;SDS011;10834;52.268;6.770;2022-08-01T17:14:31;3.08;;;1.40;;